FDX1515 KMEM-KELP
Flight info
| Callsign | FDX1515 |
|---|---|
| Flight time | 2h 12m |
| Altitude | 40000 |
| Route | CHLDR5 ANSWA BYP BGS LIFFT SAMMR3 |
| Aircraft | B77L/H-SDE1E2E3FGHIJ2J3J4J5M1RWXY/LB1D1 |
Departure
| Time | 2026-04-24 21:20 |
|---|---|
| Airport | Memphis International Airport (KMEM) |
Arrival
| Time | 2026-04-24 23:33 |
|---|---|
| Airport | El Paso International Airport (KELP) |
| Time | Latitude | Longitude | Altitude | Speed | Heading |
|---|---|---|---|---|---|
| 2026-04-24 20:46 | 35.05999 | -89.97009 | 335 ft | 0 kts | 1° |
| 2026-04-24 21:05 | 35.05998 | -89.97009 | 335 ft | 1 kts | 1° |
| 2026-04-24 21:05 | 35.05974 | -89.97008 | 313 ft | 4 kts | 349° |
| 2026-04-24 21:05 | 35.05949 | -89.96998 | 330 ft | 4 kts | 328° |
| 2026-04-24 21:06 | 35.05930 | -89.96978 | 330 ft | 4 kts | 291° |
| 2026-04-24 21:06 | 35.05927 | -89.96966 | 330 ft | 1 kts | 272° |
| 2026-04-24 21:12 | 35.05928 | -89.96977 | 332 ft | 4 kts | 272° |
| 2026-04-24 21:12 | 35.05930 | -89.97041 | 335 ft | 9 kts | 271° |
| 2026-04-24 21:12 | 35.05931 | -89.97122 | 335 ft | 10 kts | 267° |
| 2026-04-24 21:12 | 35.05890 | -89.97185 | 329 ft | 10 kts | 201° |
| 2026-04-24 21:13 | 35.05818 | -89.97191 | 330 ft | 10 kts | 180° |
| 2026-04-24 21:13 | 35.05745 | -89.97193 | 332 ft | 10 kts | 182° |
| 2026-04-24 21:13 | 35.05673 | -89.97204 | 332 ft | 10 kts | 204° |
| 2026-04-24 21:13 | 35.05660 | -89.97286 | 332 ft | 11 kts | 276° |
| 2026-04-24 21:14 | 35.05664 | -89.97382 | 331 ft | 11 kts | 272° |
| 2026-04-24 21:14 | 35.05649 | -89.97473 | 332 ft | 12 kts | 225° |
| 2026-04-24 21:14 | 35.05569 | -89.97487 | 332 ft | 12 kts | 175° |
| 2026-04-24 21:14 | 35.05501 | -89.97496 | 329 ft | 8 kts | 206° |
| 2026-04-24 21:15 | 35.05487 | -89.97511 | 330 ft | 0 kts | 224° |
| 2026-04-24 21:16 | 35.05478 | -89.97522 | 328 ft | 4 kts | 226° |
| 2026-04-24 21:16 | 35.05455 | -89.97558 | 327 ft | 7 kts | 239° |
| 2026-04-24 21:16 | 35.05423 | -89.97613 | 325 ft | 9 kts | 205° |
| 2026-04-24 21:17 | 35.05367 | -89.97617 | 327 ft | 0 kts | 176° |
| 2026-04-24 21:20 | 35.04683 | -89.97601 | 325 ft | 125 kts | 179° |
| 2026-04-24 21:20 | 35.03609 | -89.97588 | 519 ft | 169 kts | 180° |
| 2026-04-24 21:20 | 35.02426 | -89.97642 | 1395 ft | 169 kts | 180° |
| 2026-04-24 21:21 | 35.01315 | -89.97614 | 2492 ft | 158 kts | 180° |
| 2026-04-24 21:21 | 35.00181 | -89.97572 | 3224 ft | 174 kts | 183° |
| 2026-04-24 21:21 | 34.98909 | -89.97924 | 3500 ft | 205 kts | 204° |
| 2026-04-24 21:21 | 34.97549 | -89.98806 | 3916 ft | 234 kts | 210° |
| 2026-04-24 21:22 | 34.96132 | -89.99812 | 4884 ft | 236 kts | 212° |
| 2026-04-24 21:22 | 34.94936 | -90.01222 | 5723 ft | 246 kts | 237° |
| 2026-04-24 21:22 | 34.94232 | -90.03163 | 6649 ft | 255 kts | 253° |
| 2026-04-24 21:22 | 34.94033 | -90.05333 | 7571 ft | 262 kts | 267° |
| 2026-04-24 21:23 | 34.94059 | -90.07584 | 8557 ft | 267 kts | 269° |
| 2026-04-24 21:23 | 34.94093 | -90.09830 | 9588 ft | 269 kts | 270° |
| 2026-04-24 21:23 | 34.94115 | -90.12117 | 10478 ft | 273 kts | 266° |
| 2026-04-24 21:23 | 34.93966 | -90.14530 | 10919 ft | 300 kts | 264° |
| 2026-04-24 21:24 | 34.93758 | -90.17180 | 11156 ft | 332 kts | 264° |
| 2026-04-24 21:24 | 34.93544 | -90.20072 | 11848 ft | 348 kts | 265° |
| 2026-04-24 21:24 | 34.93337 | -90.23053 | 12908 ft | 355 kts | 265° |
| 2026-04-24 21:24 | 34.93152 | -90.26083 | 14008 ft | 361 kts | 266° |
| 2026-04-24 21:25 | 34.92981 | -90.29129 | 15014 ft | 366 kts | 266° |
| 2026-04-24 21:25 | 34.92809 | -90.32254 | 16026 ft | 371 kts | 266° |
| 2026-04-24 21:25 | 34.92633 | -90.35426 | 16998 ft | 378 kts | 266° |
| 2026-04-24 21:25 | 34.92452 | -90.38656 | 17959 ft | 384 kts | 266° |
| 2026-04-24 21:26 | 34.92265 | -90.41933 | 18791 ft | 390 kts | 266° |
| 2026-04-24 21:26 | 34.92074 | -90.45255 | 19634 ft | 395 kts | 266° |
| 2026-04-24 21:26 | 34.91882 | -90.48570 | 20482 ft | 399 kts | 266° |
| 2026-04-24 21:26 | 34.91684 | -90.51967 | 21316 ft | 404 kts | 266° |
| 2026-04-24 21:27 | 34.91483 | -90.55407 | 22110 ft | 409 kts | 266° |
| 2026-04-24 21:27 | 34.91278 | -90.58885 | 22870 ft | 415 kts | 266° |
| 2026-04-24 21:27 | 34.91069 | -90.62421 | 23612 ft | 420 kts | 266° |
| 2026-04-24 21:27 | 34.90857 | -90.65995 | 24249 ft | 425 kts | 265° |
| 2026-04-24 21:28 | 34.90641 | -90.69609 | 24897 ft | 429 kts | 265° |
| 2026-04-24 21:28 | 34.90416 | -90.73265 | 25545 ft | 434 kts | 264° |
| 2026-04-24 21:28 | 34.89987 | -90.76915 | 26188 ft | 438 kts | 259° |
| 2026-04-24 21:28 | 34.89387 | -90.80519 | 26895 ft | 440 kts | 257° |
| 2026-04-24 21:29 | 34.88772 | -90.84190 | 27554 ft | 444 kts | 258° |
| 2026-04-24 21:29 | 34.88172 | -90.87910 | 28159 ft | 449 kts | 258° |
| 2026-04-24 21:29 | 34.87581 | -90.91671 | 28724 ft | 454 kts | 258° |
| 2026-04-24 21:29 | 34.86993 | -90.95476 | 29336 ft | 458 kts | 258° |
| 2026-04-24 21:30 | 34.86404 | -90.99305 | 29906 ft | 462 kts | 258° |
| 2026-04-24 21:30 | 34.85818 | -91.03122 | 30386 ft | 465 kts | 258° |
| 2026-04-24 21:30 | 34.85220 | -91.07004 | 30821 ft | 468 kts | 258° |
| 2026-04-24 21:30 | 34.84618 | -91.10909 | 31328 ft | 469 kts | 258° |
| 2026-04-24 21:31 | 34.84015 | -91.14802 | 31949 ft | 466 kts | 258° |
| 2026-04-24 21:31 | 34.83416 | -91.18664 | 32689 ft | 461 kts | 257° |
| 2026-04-24 21:32 | 34.79992 | -91.40534 | 35921 ft | 449 kts | 257° |
| 2026-04-24 21:33 | 34.79411 | -91.44220 | 36397 ft | 447 kts | 257° |
| 2026-04-24 21:33 | 34.78825 | -91.47928 | 36882 ft | 445 kts | 257° |
| 2026-04-24 21:33 | 34.78238 | -91.51634 | 37372 ft | 443 kts | 257° |
| 2026-04-24 21:33 | 34.77654 | -91.55314 | 37888 ft | 441 kts | 257° |
| 2026-04-24 21:34 | 34.77075 | -91.58955 | 37860 ft | 446 kts | 257° |
| 2026-04-24 21:34 | 34.75898 | -91.66332 | 37898 ft | 441 kts | 257° |
| 2026-04-24 21:35 | 34.74731 | -91.73632 | 37899 ft | 438 kts | 257° |
| 2026-04-24 21:35 | 34.73448 | -91.80846 | 37902 ft | 436 kts | 253° |
| 2026-04-24 21:36 | 34.71683 | -91.87891 | 37859 ft | 436 kts | 251° |
| 2026-04-24 21:36 | 34.69831 | -91.94916 | 37897 ft | 438 kts | 251° |
| 2026-04-24 21:37 | 34.68015 | -92.01973 | 37893 ft | 440 kts | 252° |
| 2026-04-24 21:37 | 34.66208 | -92.09122 | 37872 ft | 442 kts | 252° |
| 2026-04-24 21:38 | 34.64419 | -92.16236 | 37880 ft | 443 kts | 252° |
| 2026-04-24 21:38 | 34.62608 | -92.23423 | 37885 ft | 445 kts | 252° |
| 2026-04-24 21:39 | 34.60788 | -92.30618 | 37873 ft | 445 kts | 252° |
| 2026-04-24 21:39 | 34.58975 | -92.37767 | 37867 ft | 444 kts | 252° |
| 2026-04-24 21:40 | 34.57156 | -92.44916 | 37863 ft | 442 kts | 252° |
| 2026-04-24 21:40 | 34.55340 | -92.52032 | 37863 ft | 440 kts | 251° |
| 2026-04-24 21:41 | 34.53527 | -92.59120 | 37875 ft | 439 kts | 251° |
| 2026-04-24 21:41 | 34.51719 | -92.66167 | 37868 ft | 439 kts | 251° |
| 2026-04-24 21:42 | 34.49902 | -92.73232 | 37872 ft | 438 kts | 251° |
| 2026-04-24 21:42 | 34.48095 | -92.80237 | 37857 ft | 437 kts | 251° |
| 2026-04-24 21:43 | 34.46278 | -92.87267 | 37859 ft | 436 kts | 251° |
| 2026-04-24 21:43 | 34.44461 | -92.94276 | 37848 ft | 435 kts | 251° |
| 2026-04-24 21:44 | 34.42644 | -93.01263 | 37839 ft | 434 kts | 252° |
| 2026-04-24 21:44 | 34.40835 | -93.08208 | 37847 ft | 435 kts | 251° |
| 2026-04-24 21:45 | 34.39006 | -93.15209 | 37846 ft | 436 kts | 251° |
| 2026-04-24 21:45 | 34.37167 | -93.22227 | 37836 ft | 437 kts | 251° |
| 2026-04-24 21:46 | 34.35333 | -93.29209 | 37832 ft | 437 kts | 251° |
| 2026-04-24 21:46 | 34.33484 | -93.36233 | 37828 ft | 438 kts | 251° |
| 2026-04-24 21:47 | 34.31623 | -93.43278 | 37829 ft | 439 kts | 251° |
| 2026-04-24 21:47 | 34.29771 | -93.50275 | 37822 ft | 438 kts | 251° |
| 2026-04-24 21:48 | 34.27906 | -93.57301 | 37815 ft | 438 kts | 251° |
| 2026-04-24 21:48 | 34.26039 | -93.64316 | 37812 ft | 438 kts | 251° |
| 2026-04-24 21:49 | 34.24181 | -93.71282 | 37817 ft | 437 kts | 251° |
| 2026-04-24 21:49 | 34.22309 | -93.78282 | 37813 ft | 437 kts | 251° |
| 2026-04-24 21:50 | 34.20433 | -93.85278 | 37808 ft | 437 kts | 252° |
| 2026-04-24 21:50 | 34.18556 | -93.92260 | 37800 ft | 436 kts | 252° |
| 2026-04-24 21:51 | 34.16678 | -93.99228 | 37802 ft | 435 kts | 252° |
| 2026-04-24 21:51 | 34.14801 | -94.06174 | 37763 ft | 435 kts | 252° |
| 2026-04-24 21:52 | 34.12935 | -94.13062 | 37772 ft | 434 kts | 251° |
| 2026-04-24 21:52 | 34.11050 | -94.20006 | 37792 ft | 434 kts | 252° |
| 2026-04-24 21:53 | 34.09162 | -94.26935 | 37787 ft | 434 kts | 252° |
| 2026-04-24 21:53 | 34.07271 | -94.33867 | 37768 ft | 434 kts | 252° |
| 2026-04-24 21:54 | 34.05390 | -94.40743 | 37771 ft | 434 kts | 252° |
| 2026-04-24 21:54 | 34.03491 | -94.47666 | 37784 ft | 434 kts | 252° |
| 2026-04-24 21:55 | 34.01589 | -94.54582 | 37790 ft | 434 kts | 252° |
| 2026-04-24 21:55 | 33.99684 | -94.61490 | 37775 ft | 434 kts | 252° |
| 2026-04-24 21:56 | 33.97790 | -94.68347 | 37776 ft | 434 kts | 252° |
| 2026-04-24 21:56 | 33.95878 | -94.75247 | 37770 ft | 433 kts | 252° |
| 2026-04-24 21:57 | 33.93968 | -94.82128 | 37771 ft | 433 kts | 252° |
| 2026-04-24 21:57 | 33.92050 | -94.89014 | 37769 ft | 433 kts | 252° |
| 2026-04-24 21:58 | 33.90132 | -94.95889 | 37774 ft | 433 kts | 252° |
| 2026-04-24 21:58 | 33.88221 | -95.02717 | 37764 ft | 433 kts | 253° |
| 2026-04-24 21:59 | 33.86295 | -95.09587 | 37767 ft | 432 kts | 253° |
| 2026-04-24 21:59 | 33.84369 | -95.16441 | 37738 ft | 432 kts | 252° |
| 2026-04-24 22:00 | 33.82438 | -95.23293 | 37767 ft | 432 kts | 252° |
| 2026-04-24 22:00 | 33.80516 | -95.30096 | 37767 ft | 432 kts | 252° |
| 2026-04-24 22:01 | 33.78576 | -95.36948 | 37765 ft | 432 kts | 253° |
| 2026-04-24 22:01 | 33.76633 | -95.43795 | 37769 ft | 431 kts | 253° |
| 2026-04-24 22:02 | 33.74702 | -95.50579 | 37740 ft | 431 kts | 253° |
| 2026-04-24 22:02 | 33.72755 | -95.57407 | 37746 ft | 431 kts | 253° |
| 2026-04-24 22:03 | 33.70818 | -95.64185 | 37755 ft | 430 kts | 253° |
| 2026-04-24 22:03 | 33.68863 | -95.71007 | 37754 ft | 430 kts | 253° |
| 2026-04-24 22:04 | 33.66918 | -95.77777 | 37741 ft | 431 kts | 253° |
| 2026-04-24 22:04 | 33.64960 | -95.84582 | 37735 ft | 431 kts | 253° |
| 2026-04-24 22:05 | 33.62999 | -95.91379 | 37734 ft | 431 kts | 253° |
| 2026-04-24 22:05 | 33.61040 | -95.98150 | 37742 ft | 431 kts | 253° |
| 2026-04-24 22:06 | 33.59067 | -96.04958 | 37744 ft | 431 kts | 253° |
| 2026-04-24 22:06 | 33.57101 | -96.11724 | 37744 ft | 431 kts | 254° |
| 2026-04-24 22:07 | 33.55127 | -96.18506 | 37731 ft | 429 kts | 254° |
| 2026-04-24 22:07 | 33.53291 | -96.25278 | 37718 ft | 424 kts | 259° |
| 2026-04-24 22:08 | 33.51955 | -96.32157 | 37700 ft | 422 kts | 259° |
| 2026-04-24 22:08 | 33.50634 | -96.38955 | 37716 ft | 420 kts | 259° |
| 2026-04-24 22:09 | 33.49294 | -96.45779 | 37716 ft | 420 kts | 259° |
| 2026-04-24 22:09 | 33.47955 | -96.52554 | 37724 ft | 419 kts | 259° |
| 2026-04-24 22:10 | 33.46607 | -96.59344 | 37727 ft | 418 kts | 259° |
| 2026-04-24 22:10 | 33.45255 | -96.66133 | 37734 ft | 417 kts | 259° |
| 2026-04-24 22:11 | 33.43914 | -96.72852 | 37726 ft | 417 kts | 259° |
| 2026-04-24 22:11 | 33.42559 | -96.79616 | 37710 ft | 417 kts | 259° |
| 2026-04-24 22:12 | 33.41202 | -96.86373 | 37720 ft | 417 kts | 259° |
| 2026-04-24 22:12 | 33.40072 | -96.91979 | 37719 ft | 417 kts | 259° |
| 2026-04-24 22:13 | 33.38710 | -96.98723 | 37720 ft | 416 kts | 259° |
| 2026-04-24 22:13 | 33.37345 | -97.05456 | 37714 ft | 415 kts | 259° |
| 2026-04-24 22:14 | 33.35980 | -97.12174 | 37719 ft | 415 kts | 259° |
| 2026-04-24 22:14 | 33.34621 | -97.18845 | 37715 ft | 415 kts | 259° |
| 2026-04-24 22:15 | 33.33249 | -97.25558 | 37717 ft | 415 kts | 259° |
| 2026-04-24 22:15 | 33.31870 | -97.32280 | 37722 ft | 415 kts | 259° |
| 2026-04-24 22:16 | 33.30499 | -97.38949 | 37724 ft | 415 kts | 259° |
| 2026-04-24 22:16 | 33.29116 | -97.45659 | 37715 ft | 416 kts | 259° |
| 2026-04-24 22:17 | 33.27726 | -97.52378 | 37759 ft | 416 kts | 259° |
| 2026-04-24 22:17 | 33.26333 | -97.59091 | 37768 ft | 416 kts | 259° |
| 2026-04-24 22:18 | 33.24938 | -97.65800 | 37762 ft | 415 kts | 259° |
| 2026-04-24 22:18 | 33.23551 | -97.72447 | 37753 ft | 413 kts | 259° |
| 2026-04-24 22:19 | 33.22157 | -97.79104 | 37759 ft | 412 kts | 259° |
| 2026-04-24 22:19 | 33.20764 | -97.85747 | 37757 ft | 411 kts | 259° |
| 2026-04-24 22:20 | 33.19370 | -97.92373 | 37756 ft | 411 kts | 259° |
| 2026-04-24 22:20 | 33.17981 | -97.98955 | 37757 ft | 411 kts | 259° |
| 2026-04-24 22:21 | 33.16585 | -98.05549 | 37743 ft | 411 kts | 259° |
| 2026-04-24 22:21 | 33.15182 | -98.12161 | 37728 ft | 411 kts | 259° |
| 2026-04-24 22:22 | 33.13773 | -98.18782 | 37719 ft | 410 kts | 259° |
| 2026-04-24 22:22 | 33.12369 | -98.25363 | 37710 ft | 411 kts | 259° |
| 2026-04-24 22:23 | 33.10953 | -98.31977 | 37708 ft | 411 kts | 259° |
| 2026-04-24 22:23 | 33.09535 | -98.38587 | 37711 ft | 411 kts | 258° |
| 2026-04-24 22:24 | 33.08122 | -98.45154 | 37745 ft | 411 kts | 258° |
| 2026-04-24 22:24 | 33.06696 | -98.51764 | 37741 ft | 411 kts | 258° |
| 2026-04-24 22:25 | 33.05267 | -98.58366 | 37741 ft | 411 kts | 258° |
| 2026-04-24 22:25 | 33.03834 | -98.64970 | 37704 ft | 411 kts | 258° |
| 2026-04-24 22:26 | 33.02408 | -98.71523 | 37713 ft | 411 kts | 258° |
| 2026-04-24 22:26 | 33.00968 | -98.78125 | 37715 ft | 410 kts | 258° |
| 2026-04-24 22:27 | 32.99537 | -98.84663 | 37725 ft | 410 kts | 258° |
| 2026-04-24 22:27 | 32.98094 | -98.91241 | 37726 ft | 410 kts | 258° |
| 2026-04-24 22:28 | 32.96647 | -98.97821 | 37728 ft | 410 kts | 258° |
| 2026-04-24 22:28 | 32.95204 | -99.04365 | 37727 ft | 410 kts | 258° |
| 2026-04-24 22:29 | 32.93026 | -99.14205 | 37721 ft | 409 kts | 258° |
| 2026-04-24 22:29 | 32.91578 | -99.20726 | 37710 ft | 409 kts | 258° |
| 2026-04-24 22:30 | 32.90119 | -99.27280 | 37706 ft | 409 kts | 258° |
| 2026-04-24 22:30 | 32.88657 | -99.33831 | 37710 ft | 408 kts | 258° |
| 2026-04-24 22:31 | 32.87201 | -99.40337 | 37710 ft | 408 kts | 258° |
| 2026-04-24 22:31 | 32.85734 | -99.46874 | 37711 ft | 408 kts | 258° |
| 2026-04-24 22:32 | 32.84261 | -99.53418 | 37704 ft | 408 kts | 258° |
| 2026-04-24 22:32 | 32.82796 | -99.59912 | 37706 ft | 408 kts | 258° |
| 2026-04-24 22:33 | 32.81321 | -99.66435 | 37703 ft | 407 kts | 258° |
| 2026-04-24 22:33 | 32.79853 | -99.72907 | 37710 ft | 407 kts | 258° |
| 2026-04-24 22:34 | 32.78373 | -99.79418 | 37711 ft | 407 kts | 258° |
| 2026-04-24 22:34 | 32.76897 | -99.85892 | 37708 ft | 407 kts | 258° |
| 2026-04-24 22:35 | 32.75411 | -99.92390 | 37689 ft | 406 kts | 258° |
| 2026-04-24 22:35 | 32.73936 | -99.98829 | 37689 ft | 405 kts | 258° |
| 2026-04-24 22:36 | 32.72451 | -100.05291 | 37689 ft | 405 kts | 258° |
| 2026-04-24 22:36 | 32.70966 | -100.11743 | 37690 ft | 405 kts | 258° |
| 2026-04-24 22:37 | 32.69486 | -100.18152 | 37690 ft | 405 kts | 257° |
| 2026-04-24 22:37 | 32.67994 | -100.24598 | 37690 ft | 404 kts | 257° |
| 2026-04-24 22:38 | 32.66499 | -100.31039 | 37705 ft | 404 kts | 257° |
| 2026-04-24 22:38 | 32.64999 | -100.37486 | 37775 ft | 404 kts | 257° |
| 2026-04-24 22:39 | 32.63508 | -100.43875 | 37799 ft | 404 kts | 257° |
| 2026-04-24 22:39 | 32.62003 | -100.50313 | 37802 ft | 404 kts | 257° |
| 2026-04-24 22:40 | 32.60495 | -100.56746 | 37795 ft | 404 kts | 257° |
| 2026-04-24 22:40 | 32.58986 | -100.63166 | 37796 ft | 404 kts | 257° |
| 2026-04-24 22:41 | 32.57474 | -100.69584 | 37777 ft | 404 kts | 257° |
| 2026-04-24 22:41 | 32.55955 | -100.76016 | 37758 ft | 405 kts | 257° |
| 2026-04-24 22:42 | 32.54443 | -100.82402 | 37765 ft | 405 kts | 257° |
| 2026-04-24 22:42 | 32.52917 | -100.88830 | 37780 ft | 405 kts | 257° |
| 2026-04-24 22:43 | 32.51387 | -100.95260 | 37779 ft | 405 kts | 257° |
| 2026-04-24 22:43 | 32.49852 | -101.01695 | 37754 ft | 405 kts | 257° |
| 2026-04-24 22:44 | 32.48315 | -101.08121 | 37745 ft | 405 kts | 257° |
| 2026-04-24 22:44 | 32.46774 | -101.14553 | 37737 ft | 405 kts | 257° |
| 2026-04-24 22:45 | 32.45243 | -101.20921 | 37727 ft | 405 kts | 257° |
| 2026-04-24 22:45 | 32.43698 | -101.27337 | 37699 ft | 405 kts | 257° |
| 2026-04-24 22:46 | 32.42152 | -101.33743 | 37702 ft | 404 kts | 257° |
| 2026-04-24 22:46 | 32.40610 | -101.40117 | 37705 ft | 405 kts | 257° |
| 2026-04-24 22:47 | 32.39052 | -101.46554 | 37704 ft | 405 kts | 258° |
| 2026-04-24 22:47 | 32.37991 | -101.53076 | 37710 ft | 403 kts | 264° |
| 2026-04-24 22:48 | 32.37195 | -101.59609 | 37705 ft | 404 kts | 263° |
| 2026-04-24 22:48 | 32.36376 | -101.66188 | 37698 ft | 404 kts | 263° |
| 2026-04-24 22:49 | 32.35548 | -101.72771 | 37703 ft | 404 kts | 263° |
| 2026-04-24 22:49 | 32.34721 | -101.79315 | 37689 ft | 402 kts | 263° |
| 2026-04-24 22:50 | 32.33892 | -101.85854 | 37715 ft | 400 kts | 263° |
| 2026-04-24 22:50 | 32.33068 | -101.92315 | 37696 ft | 399 kts | 263° |
| 2026-04-24 22:51 | 32.32238 | -101.98804 | 37699 ft | 398 kts | 263° |
| 2026-04-24 22:51 | 32.31406 | -102.05280 | 37702 ft | 398 kts | 263° |
| 2026-04-24 22:52 | 32.30572 | -102.11749 | 37685 ft | 397 kts | 263° |
| 2026-04-24 22:52 | 32.29737 | -102.18200 | 37701 ft | 396 kts | 263° |
| 2026-04-24 22:53 | 32.28906 | -102.24590 | 37695 ft | 395 kts | 263° |
| 2026-04-24 22:53 | 32.28066 | -102.31020 | 37704 ft | 395 kts | 263° |
| 2026-04-24 22:54 | 32.27226 | -102.37424 | 37703 ft | 395 kts | 263° |
| 2026-04-24 22:54 | 32.26378 | -102.43866 | 37695 ft | 395 kts | 263° |
| 2026-04-24 22:55 | 32.25533 | -102.50261 | 37708 ft | 395 kts | 263° |
| 2026-04-24 22:55 | 32.24681 | -102.56681 | 37703 ft | 395 kts | 263° |
| 2026-04-24 22:56 | 32.23829 | -102.63076 | 37706 ft | 396 kts | 263° |
| 2026-04-24 22:56 | 32.23113 | -102.68428 | 37700 ft | 396 kts | 263° |
| 2026-04-24 22:57 | 32.22251 | -102.74849 | 37701 ft | 396 kts | 263° |
| 2026-04-24 22:57 | 32.21383 | -102.81292 | 37700 ft | 396 kts | 263° |
| 2026-04-24 22:58 | 32.20516 | -102.87703 | 37706 ft | 399 kts | 263° |
| 2026-04-24 22:58 | 32.19634 | -102.94200 | 37701 ft | 401 kts | 263° |
| 2026-04-24 22:59 | 32.18749 | -103.00688 | 37701 ft | 402 kts | 263° |
| 2026-04-24 23:00 | 32.17405 | -103.10501 | 37699 ft | 404 kts | 263° |
| 2026-04-24 23:00 | 32.16504 | -103.17042 | 37695 ft | 403 kts | 263° |
| 2026-04-24 23:01 | 32.15604 | -103.23550 | 37693 ft | 403 kts | 263° |
| 2026-04-24 23:01 | 32.14697 | -103.30080 | 37686 ft | 402 kts | 263° |
| 2026-04-24 23:02 | 32.13790 | -103.36595 | 37686 ft | 401 kts | 263° |
| 2026-04-24 23:02 | 32.12882 | -103.43089 | 37690 ft | 401 kts | 263° |
| 2026-04-24 23:03 | 32.11976 | -103.49539 | 37686 ft | 400 kts | 263° |
| 2026-04-24 23:03 | 32.11063 | -103.56020 | 37687 ft | 400 kts | 262° |
| 2026-04-24 23:04 | 32.10147 | -103.62492 | 37688 ft | 399 kts | 262° |
| 2026-04-24 23:04 | 32.09230 | -103.68950 | 37682 ft | 398 kts | 262° |
| 2026-04-24 23:05 | 32.08311 | -103.75396 | 37684 ft | 398 kts | 262° |
| 2026-04-24 23:05 | 32.07396 | -103.81797 | 37685 ft | 398 kts | 262° |
| 2026-04-24 23:06 | 32.06470 | -103.88243 | 37691 ft | 398 kts | 262° |
| 2026-04-24 23:06 | 32.05541 | -103.94690 | 37690 ft | 398 kts | 262° |
| 2026-04-24 23:07 | 32.04613 | -104.01101 | 37688 ft | 398 kts | 262° |
| 2026-04-24 23:07 | 32.03678 | -104.07546 | 37708 ft | 398 kts | 262° |
| 2026-04-24 23:08 | 32.02740 | -104.13982 | 37722 ft | 398 kts | 262° |
| 2026-04-24 23:08 | 32.01798 | -104.20419 | 37714 ft | 398 kts | 262° |
| 2026-04-24 23:09 | 32.00858 | -104.26823 | 37717 ft | 398 kts | 262° |
| 2026-04-24 23:09 | 31.99910 | -104.33267 | 37723 ft | 399 kts | 262° |
| 2026-04-24 23:10 | 31.98956 | -104.39721 | 37721 ft | 400 kts | 262° |
| 2026-04-24 23:10 | 31.98249 | -104.46187 | 37421 ft | 404 kts | 265° |
| 2026-04-24 23:10 | 31.97935 | -104.49518 | 36615 ft | 410 kts | 265° |
| 2026-04-24 23:11 | 31.97611 | -104.52849 | 35785 ft | 408 kts | 265° |
| 2026-04-24 23:11 | 31.97274 | -104.56183 | 34886 ft | 408 kts | 265° |
| 2026-04-24 23:11 | 31.96937 | -104.59485 | 34107 ft | 413 kts | 264° |
| 2026-04-24 23:11 | 31.96591 | -104.62849 | 33804 ft | 412 kts | 264° |
| 2026-04-24 23:12 | 31.96246 | -104.66197 | 33678 ft | 406 kts | 264° |
| 2026-04-24 23:12 | 31.95907 | -104.69483 | 33490 ft | 402 kts | 264° |
| 2026-04-24 23:12 | 31.95570 | -104.72746 | 33210 ft | 401 kts | 264° |
| 2026-04-24 23:12 | 31.95233 | -104.76004 | 32810 ft | 400 kts | 264° |
| 2026-04-24 23:13 | 31.94898 | -104.79250 | 32063 ft | 396 kts | 264° |
| 2026-04-24 23:13 | 31.94565 | -104.82451 | 31475 ft | 391 kts | 264° |
| 2026-04-24 23:13 | 31.94240 | -104.85580 | 30862 ft | 388 kts | 264° |
| 2026-04-24 23:13 | 31.93912 | -104.88724 | 30254 ft | 385 kts | 264° |
| 2026-04-24 23:14 | 31.93586 | -104.91843 | 29587 ft | 384 kts | 264° |
| 2026-04-24 23:14 | 31.93260 | -104.94952 | 28888 ft | 381 kts | 264° |
| 2026-04-24 23:14 | 31.92938 | -104.98032 | 28247 ft | 377 kts | 264° |
| 2026-04-24 23:14 | 31.92616 | -105.01094 | 27619 ft | 374 kts | 264° |
| 2026-04-24 23:15 | 31.92294 | -105.04134 | 27004 ft | 371 kts | 264° |
| 2026-04-24 23:15 | 31.91981 | -105.07098 | 26423 ft | 368 kts | 264° |
| 2026-04-24 23:15 | 31.91664 | -105.10085 | 25835 ft | 365 kts | 264° |
| 2026-04-24 23:15 | 31.91349 | -105.13057 | 25257 ft | 363 kts | 264° |
| 2026-04-24 23:16 | 31.91039 | -105.15968 | 24700 ft | 362 kts | 264° |
| 2026-04-24 23:16 | 31.90727 | -105.18899 | 24128 ft | 361 kts | 264° |
| 2026-04-24 23:16 | 31.90415 | -105.21826 | 23548 ft | 360 kts | 264° |
| 2026-04-24 23:16 | 31.90102 | -105.24753 | 22913 ft | 359 kts | 264° |
| 2026-04-24 23:17 | 31.89790 | -105.27665 | 22403 ft | 356 kts | 264° |
| 2026-04-24 23:17 | 31.89489 | -105.30457 | 22223 ft | 329 kts | 263° |
| 2026-04-24 23:17 | 31.89210 | -105.33037 | 21719 ft | 310 kts | 264° |
| 2026-04-24 23:17 | 31.88941 | -105.35548 | 21336 ft | 307 kts | 263° |
| 2026-04-24 23:18 | 31.88675 | -105.38020 | 21012 ft | 303 kts | 263° |
| 2026-04-24 23:18 | 31.88410 | -105.40467 | 20629 ft | 300 kts | 263° |
| 2026-04-24 23:18 | 31.88146 | -105.42903 | 20205 ft | 300 kts | 263° |
| 2026-04-24 23:18 | 31.87884 | -105.45311 | 19762 ft | 299 kts | 263° |
| 2026-04-24 23:19 | 31.87640 | -105.47738 | 19336 ft | 298 kts | 267° |
| 2026-04-24 23:19 | 31.87824 | -105.50138 | 18959 ft | 288 kts | 279° |
| 2026-04-24 23:19 | 31.88249 | -105.52398 | 18500 ft | 281 kts | 281° |
| 2026-04-24 23:19 | 31.88680 | -105.54633 | 18215 ft | 277 kts | 281° |
| 2026-04-24 23:20 | 31.89100 | -105.56828 | 17930 ft | 273 kts | 280° |
| 2026-04-24 23:20 | 31.89510 | -105.58996 | 17566 ft | 270 kts | 280° |
| 2026-04-24 23:20 | 31.89906 | -105.61122 | 17186 ft | 268 kts | 280° |
| 2026-04-24 23:20 | 31.90307 | -105.63292 | 16792 ft | 267 kts | 280° |
| 2026-04-24 23:21 | 31.90694 | -105.65398 | 16410 ft | 266 kts | 280° |
| 2026-04-24 23:21 | 31.91083 | -105.67526 | 16071 ft | 264 kts | 280° |
| 2026-04-24 23:21 | 31.91466 | -105.69626 | 15749 ft | 261 kts | 280° |
| 2026-04-24 23:21 | 31.91847 | -105.71716 | 15381 ft | 260 kts | 280° |
| 2026-04-24 23:22 | 31.92224 | -105.73791 | 15007 ft | 259 kts | 280° |
| 2026-04-24 23:22 | 31.92599 | -105.75862 | 14638 ft | 258 kts | 280° |
| 2026-04-24 23:22 | 31.92974 | -105.77930 | 14284 ft | 257 kts | 280° |
| 2026-04-24 23:22 | 31.93346 | -105.79979 | 13927 ft | 255 kts | 280° |
| 2026-04-24 23:23 | 31.93714 | -105.82017 | 13581 ft | 254 kts | 280° |
| 2026-04-24 23:23 | 31.94077 | -105.84023 | 13381 ft | 246 kts | 280° |
| 2026-04-24 23:23 | 31.94417 | -105.85904 | 13037 ft | 230 kts | 279° |
| 2026-04-24 23:23 | 31.94604 | -105.87790 | 12433 ft | 231 kts | 271° |
| 2026-04-24 23:24 | 31.94629 | -105.89651 | 12097 ft | 229 kts | 270° |
| 2026-04-24 23:24 | 31.94641 | -105.91504 | 11770 ft | 225 kts | 270° |
| 2026-04-24 23:24 | 31.94656 | -105.93358 | 11358 ft | 226 kts | 270° |
| 2026-04-24 23:24 | 31.94676 | -105.95209 | 10972 ft | 226 kts | 270° |
| 2026-04-24 23:25 | 31.94699 | -105.97056 | 10552 ft | 225 kts | 270° |
| 2026-04-24 23:25 | 31.94726 | -105.98889 | 10256 ft | 223 kts | 270° |
| 2026-04-24 23:25 | 31.94756 | -106.00725 | 9828 ft | 226 kts | 269° |
| 2026-04-24 23:25 | 31.94786 | -106.02597 | 9399 ft | 228 kts | 269° |
| 2026-04-24 23:26 | 31.94815 | -106.04439 | 9192 ft | 222 kts | 269° |
| 2026-04-24 23:26 | 31.94846 | -106.06255 | 9001 ft | 221 kts | 269° |
| 2026-04-24 23:26 | 31.94875 | -106.08037 | 8802 ft | 222 kts | 269° |
| 2026-04-24 23:26 | 31.94902 | -106.09859 | 8563 ft | 223 kts | 269° |
| 2026-04-24 23:27 | 31.94931 | -106.11699 | 8330 ft | 225 kts | 270° |
| 2026-04-24 23:27 | 31.94961 | -106.13545 | 8090 ft | 226 kts | 269° |
| 2026-04-24 23:27 | 31.94989 | -106.15400 | 7851 ft | 225 kts | 269° |
| 2026-04-24 23:27 | 31.95017 | -106.17221 | 7638 ft | 217 kts | 268° |
| 2026-04-24 23:28 | 31.94748 | -106.18884 | 7383 ft | 205 kts | 242° |
| 2026-04-24 23:28 | 31.94007 | -106.20236 | 7165 ft | 193 kts | 238° |
| 2026-04-24 23:28 | 31.93262 | -106.21514 | 6923 ft | 185 kts | 234° |
| 2026-04-24 23:28 | 31.92490 | -106.22679 | 6735 ft | 176 kts | 233° |
| 2026-04-24 23:29 | 31.91706 | -106.23801 | 6558 ft | 179 kts | 231° |
| 2026-04-24 23:29 | 31.90922 | -106.24904 | 6358 ft | 171 kts | 232° |
| 2026-04-24 23:29 | 31.90188 | -106.25935 | 6146 ft | 157 kts | 231° |
| 2026-04-24 23:29 | 31.89510 | -106.26887 | 5962 ft | 147 kts | 232° |
| 2026-04-24 23:30 | 31.88845 | -106.27820 | 5869 ft | 152 kts | 232° |
| 2026-04-24 23:30 | 31.88158 | -106.28784 | 5659 ft | 149 kts | 231° |
| 2026-04-24 23:30 | 31.87512 | -106.29689 | 5502 ft | 138 kts | 232° |
| 2026-04-24 23:30 | 31.86901 | -106.30546 | 5345 ft | 136 kts | 232° |
| 2026-04-24 23:31 | 31.86316 | -106.31363 | 5254 ft | 126 kts | 232° |
| 2026-04-24 23:31 | 31.85752 | -106.32158 | 5108 ft | 128 kts | 234° |
| 2026-04-24 23:31 | 31.85167 | -106.32980 | 4987 ft | 138 kts | 231° |
| 2026-04-24 23:31 | 31.84554 | -106.33835 | 4778 ft | 133 kts | 232° |
| 2026-04-24 23:32 | 31.83943 | -106.34693 | 4599 ft | 139 kts | 233° |
| 2026-04-24 23:32 | 31.83334 | -106.35544 | 4356 ft | 132 kts | 231° |
| 2026-04-24 23:32 | 31.82756 | -106.36347 | 4144 ft | 128 kts | 233° |
| 2026-04-24 23:32 | 31.82202 | -106.37124 | 3972 ft | 122 kts | 233° |
| 2026-04-24 23:33 | 31.81716 | -106.37816 | 3953 ft | 93 kts | 229° |
| 2026-04-24 23:33 | 31.81480 | -106.38141 | 3952 ft | 64 kts | 230° |
| 2026-04-24 23:33 | 31.81281 | -106.38417 | 3953 ft | 17 kts | 229° |
| 2026-04-24 23:33 | 31.81189 | -106.38482 | 3953 ft | 13 kts | 169° |
| 2026-04-24 23:34 | 31.81120 | -106.38420 | 3952 ft | 12 kts | 139° |
| 2026-04-24 23:34 | 31.81078 | -106.38344 | 3952 ft | 10 kts | 90° |
| 2026-04-24 23:34 | 31.81112 | -106.38273 | 3951 ft | 11 kts | 49° |
| 2026-04-24 23:34 | 31.81161 | -106.38206 | 3951 ft | 11 kts | 50° |
| 2026-04-24 23:35 | 31.81212 | -106.38134 | 3951 ft | 12 kts | 50° |
| 2026-04-24 23:35 | 31.81267 | -106.38059 | 3951 ft | 12 kts | 50° |
| 2026-04-24 23:35 | 31.81323 | -106.37980 | 3951 ft | 13 kts | 50° |
| 2026-04-24 23:35 | 31.81382 | -106.37899 | 3951 ft | 13 kts | 50° |
| 2026-04-24 23:36 | 31.81442 | -106.37814 | 3951 ft | 14 kts | 50° |
| 2026-04-24 23:36 | 31.81505 | -106.37727 | 3952 ft | 14 kts | 50° |
| 2026-04-24 23:36 | 31.81568 | -106.37639 | 3951 ft | 14 kts | 50° |
| 2026-04-24 23:36 | 31.81633 | -106.37548 | 3951 ft | 15 kts | 50° |
| 2026-04-24 23:37 | 31.81700 | -106.37454 | 3951 ft | 15 kts | 50° |
| 2026-04-24 23:37 | 31.81769 | -106.37358 | 3951 ft | 16 kts | 51° |
| 2026-04-24 23:37 | 31.81913 | -106.37160 | 3951 ft | 13 kts | 49° |
| 2026-04-24 23:38 | 31.81909 | -106.37070 | 3951 ft | 12 kts | 134° |
| 2026-04-24 23:38 | 31.81865 | -106.37020 | 3951 ft | 5 kts | 139° |
| 2026-04-24 23:38 | 31.81834 | -106.37002 | 3951 ft | 5 kts | 169° |
| 2026-04-24 23:38 | 31.81804 | -106.37014 | 3951 ft | 4 kts | 212° |
| 2026-04-24 23:39 | 31.81777 | -106.37034 | 3951 ft | 4 kts | 208° |
| 2026-04-24 23:39 | 31.81749 | -106.37042 | 3951 ft | 4 kts | 181° |
| 2026-04-24 23:39 | 31.81737 | -106.37035 | 3951 ft | 0 kts | 143° |
| 2026-04-24 23:39 | 31.81732 | -106.37029 | 3951 ft | 3 kts | 137° |
| 2026-04-24 23:40 | 31.81726 | -106.37023 | 3951 ft | 1 kts | 137° |
| 2026-04-24 23:40 | 31.81722 | -106.37018 | 3951 ft | 1 kts | 137° |
| 2026-04-24 23:40 | 31.81712 | -106.37007 | 3951 ft | 0 kts | 137° |
| 2026-04-24 23:43 | 31.81718 | -106.37014 | 3951 ft | 4 kts | 137° |
| 2026-04-24 23:44 | 31.81738 | -106.37035 | 3951 ft | 4 kts | 137° |
| 2026-04-24 23:44 | 31.81758 | -106.37057 | 3951 ft | 4 kts | 137° |
| 2026-04-24 23:44 | 31.81760 | -106.37058 | 3951 ft | 10 kts | 137° |
| 2026-04-24 23:44 | 31.81725 | -106.37036 | 3951 ft | 8 kts | 103° |
| 2026-04-24 23:45 | 31.81710 | -106.37008 | 3951 ft | 7 kts | 133° |
| 2026-04-24 23:45 | 31.81703 | -106.37000 | 3951 ft | 0 kts | 136° |